sensor_id;sensor_type;location;lat;lon;timestamp;pressure;altitude;pressure_sealevel;temperature
13304;BMP280;6720;51.958;4.540;2022-10-16T00:01:30;100675.41;;;15.21
13304;BMP280;6720;51.958;4.540;2022-10-16T00:03:58;100679.72;;;15.24
13304;BMP280;6720;51.958;4.540;2022-10-16T00:06:24;100684.25;;;15.20
13304;BMP280;6720;51.958;4.540;2022-10-16T00:08:50;100703.13;;;15.33
13304;BMP280;6720;51.958;4.540;2022-10-16T00:11:21;100669.53;;;15.15
13304;BMP280;6720;51.958;4.540;2022-10-16T00:13:48;100697.03;;;15.31
13304;BMP280;6720;51.958;4.540;2022-10-16T00:16:14;100700.47;;;15.33
13304;BMP280;6720;51.958;4.540;2022-10-16T00:18:40;100699.09;;;15.23
13304;BMP280;6720;51.958;4.540;2022-10-16T00:21:12;100670.38;;;15.15
13304;BMP280;6720;51.958;4.540;2022-10-16T00:23:38;100710.81;;;15.39
13304;BMP280;6720;51.958;4.540;2022-10-16T00:26:07;100670.66;;;15.31
13304;BMP280;6720;51.958;4.540;2022-10-16T00:28:33;100694.75;;;15.45
13304;BMP280;6720;51.958;4.540;2022-10-16T00:30:59;100694.66;;;15.48
13304;BMP280;6720;51.958;4.540;2022-10-16T00:33:27;100697.41;;;15.45
13304;BMP280;6720;51.958;4.540;2022-10-16T00:35:52;100692.78;;;15.50
13304;BMP280;6720;51.958;4.540;2022-10-16T00:38:17;100678.94;;;15.45
13304;BMP280;6720;51.958;4.540;2022-10-16T00:40:43;100686.97;;;15.42
13304;BMP280;6720;51.958;4.540;2022-10-16T00:43:49;100663.91;;;15.24
13304;BMP280;6720;51.958;4.540;2022-10-16T00:51:37;100690.38;;;15.21
13304;BMP280;6720;51.958;4.540;2022-10-16T00:54:08;100640.06;;;15.04
13304;BMP280;6720;51.958;4.540;2022-10-16T00:56:34;100674.00;;;15.13
13304;BMP280;6720;51.958;4.540;2022-10-16T00:59:02;100667.94;;;15.11
13304;BMP280;6720;51.958;4.540;2022-10-16T01:01:29;100657.59;;;15.05
13304;BMP280;6720;51.958;4.540;2022-10-16T01:03:54;100668.47;;;14.97
13304;BMP280;6720;51.958;4.540;2022-10-16T01:06:27;100687.53;;;15.04
13304;BMP280;6720;51.958;4.540;2022-10-16T01:09:11;100688.50;;;15.01
13304;BMP280;6720;51.958;4.540;2022-10-16T01:14:32;100691.47;;;14.92
13304;BMP280;6720;51.958;4.540;2022-10-16T01:17:04;100676.06;;;14.82
13304;BMP280;6720;51.958;4.540;2022-10-16T01:22:20;100690.16;;;14.81
13304;BMP280;6720;51.958;4.540;2022-10-16T01:24:48;100657.59;;;14.58
13304;BMP280;6720;51.958;4.540;2022-10-16T01:27:20;100703.44;;;14.77
13304;BMP280;6720;51.958;4.540;2022-10-16T01:30:02;100702.38;;;14.58
13304;BMP280;6720;51.958;4.540;2022-10-16T01:32:38;100688.34;;;14.58
13304;BMP280;6720;51.958;4.540;2022-10-16T01:37:52;100687.44;;;14.59
13304;BMP280;6720;51.958;4.540;2022-10-16T01:40:20;100699.66;;;14.61
13304;BMP280;6720;51.958;4.540;2022-10-16T01:42:50;100668.94;;;14.36
13304;BMP280;6720;51.958;4.540;2022-10-16T01:45:19;100681.34;;;14.32
13304;BMP280;6720;51.958;4.540;2022-10-16T01:47:45;100706.44;;;14.44
13304;BMP280;6720;51.958;4.540;2022-10-16T01:50:14;100682.31;;;14.30
13304;BMP280;6720;51.958;4.540;2022-10-16T01:52:43;100677.22;;;14.25
13304;BMP280;6720;51.958;4.540;2022-10-16T01:55:10;100699.09;;;14.27
13304;BMP280;6720;51.958;4.540;2022-10-16T01:57:39;100688.75;;;14.21
13304;BMP280;6720;51.958;4.540;2022-10-16T02:00:11;100664.53;;;14.10
13304;BMP280;6720;51.958;4.540;2022-10-16T02:02:40;100706.72;;;14.35
13304;BMP280;6720;51.958;4.540;2022-10-16T02:08:04;100714.66;;;14.33
13304;BMP280;6720;51.958;4.540;2022-10-16T02:10:30;100717.22;;;14.36
13304;BMP280;6720;51.958;4.540;2022-10-16T02:15:31;100714.47;;;14.39
13304;BMP280;6720;51.958;4.540;2022-10-16T02:17:56;100714.84;;;14.29
13304;BMP280;6720;51.958;4.540;2022-10-16T02:20:44;100688.66;;;14.24
13304;BMP280;6720;51.958;4.540;2022-10-16T02:23:24;100716.09;;;14.43
13304;BMP280;6720;51.958;4.540;2022-10-16T02:25:54;100695.34;;;14.34
13304;BMP280;6720;51.958;4.540;2022-10-16T02:28:23;100714.16;;;14.48
13304;BMP280;6720;51.958;4.540;2022-10-16T02:30:59;100714.03;;;14.51
13304;BMP280;6720;51.958;4.540;2022-10-16T02:33:27;100710.66;;;14.48
13304;BMP280;6720;51.958;4.540;2022-10-16T02:35:54;100727.91;;;14.56
13304;BMP280;6720;51.958;4.540;2022-10-16T02:38:22;100690.19;;;14.31
13304;BMP280;6720;51.958;4.540;2022-10-16T02:40:48;100718.44;;;14.51
13304;BMP280;6720;51.958;4.540;2022-10-16T02:43:14;100721.03;;;14.52
13304;BMP280;6720;51.958;4.540;2022-10-16T02:45:39;100717.59;;;14.50
13304;BMP280;6720;51.958;4.540;2022-10-16T02:48:05;100721.03;;;14.52
13304;BMP280;6720;51.958;4.540;2022-10-16T02:50:31;100708.66;;;14.54
13304;BMP280;6720;51.958;4.540;2022-10-16T02:52:56;100707.22;;;14.46
13304;BMP280;6720;51.958;4.540;2022-10-16T02:55:21;100716.81;;;14.47
13304;BMP280;6720;51.958;4.540;2022-10-16T02:57:47;100717.50;;;14.53
13304;BMP280;6720;51.958;4.540;2022-10-16T03:00:14;100719.22;;;14.54
13304;BMP280;6720;51.958;4.540;2022-10-16T03:02:40;100706.44;;;14.44
13304;BMP280;6720;51.958;4.540;2022-10-16T03:05:06;100707.84;;;14.52
13304;BMP280;6720;51.958;4.540;2022-10-16T03:07:32;100719.41;;;14.48
13304;BMP280;6720;51.958;4.540;2022-10-16T03:09:57;100717.06;;;14.41
13304;BMP280;6720;51.958;4.540;2022-10-16T03:12:26;100728.13;;;14.50
13304;BMP280;6720;51.958;4.540;2022-10-16T03:14:51;100731.56;;;14.52
13304;BMP280;6720;51.958;4.540;2022-10-16T03:17:16;100736.72;;;14.55
13304;BMP280;6720;51.958;4.540;2022-10-16T03:19:42;100734.00;;;14.58
13304;BMP280;6720;51.958;4.540;2022-10-16T03:22:25;100734.91;;;14.57
13304;BMP280;6720;51.958;4.540;2022-10-16T03:25:22;100744.69;;;14.54
13304;BMP280;6720;51.958;4.540;2022-10-16T03:28:17;100748.97;;;14.56
13304;BMP280;6720;51.958;4.540;2022-10-16T03:31:30;100759.75;;;14.50
13304;BMP280;6720;51.958;4.540;2022-10-16T03:34:44;100747.69;;;14.43
13304;BMP280;6720;51.958;4.540;2022-10-16T03:37:37;100754.44;;;14.52
13304;BMP280;6720;51.958;4.540;2022-10-16T03:40:03;100751.84;;;14.50
13304;BMP280;6720;51.958;4.540;2022-10-16T03:42:29;100749.31;;;14.47
13304;BMP280;6720;51.958;4.540;2022-10-16T03:44:54;100756.28;;;14.48
13304;BMP280;6720;51.958;4.540;2022-10-16T03:47:20;100763.50;;;14.43
13304;BMP280;6720;51.958;4.540;2022-10-16T03:49:47;100773.06;;;14.46
13304;BMP280;6720;51.958;4.540;2022-10-16T03:52:13;100766.88;;;14.47
13304;BMP280;6720;51.958;4.540;2022-10-16T03:55:01;100770.53;;;14.43
13304;BMP280;6720;51.958;4.540;2022-10-16T03:57:58;100783.59;;;14.46
13304;BMP280;6720;51.958;4.540;2022-10-16T04:07:22;100783.91;;;14.37
13304;BMP280;6720;51.958;4.540;2022-10-16T04:09:47;100794.66;;;14.31
13304;BMP280;6720;51.958;4.540;2022-10-16T04:12:13;100794.41;;;14.38
13304;BMP280;6720;51.958;4.540;2022-10-16T04:14:38;100789.28;;;14.34
13304;BMP280;6720;51.958;4.540;2022-10-16T04:17:03;100787.56;;;14.33
13304;BMP280;6720;51.958;4.540;2022-10-16T04:19:29;100792.09;;;14.28
13304;BMP280;6720;51.958;4.540;2022-10-16T04:21:54;100788.72;;;14.24
13304;BMP280;6720;51.958;4.540;2022-10-16T04:24:19;100795.69;;;14.25
13304;BMP280;6720;51.958;4.540;2022-10-16T04:26:45;100807.94;;;14.26
13304;BMP280;6720;51.958;4.540;2022-10-16T04:29:10;100799.16;;;14.27
13304;BMP280;6720;51.958;4.540;2022-10-16T04:31:36;100820.09;;;14.30
13304;BMP280;6720;51.958;4.540;2022-10-16T04:34:01;100821.06;;;14.28
13304;BMP280;6720;51.958;4.540;2022-10-16T04:36:26;100819.16;;;14.33
13304;BMP280;6720;51.958;4.540;2022-10-16T04:38:52;100824.38;;;14.34
13304;BMP280;6720;51.958;4.540;2022-10-16T04:41:17;100826.94;;;14.36
13304;BMP280;6720;51.958;4.540;2022-10-16T04:43:42;100834.81;;;14.37
13304;BMP280;6720;51.958;4.540;2022-10-16T04:46:08;100835.91;;;14.30
13304;BMP280;6720;51.958;4.540;2022-10-16T04:48:35;100840.25;;;14.33
13304;BMP280;6720;51.958;4.540;2022-10-16T04:51:00;100838.44;;;14.33
13304;BMP280;6720;51.958;4.540;2022-10-16T04:53:25;100845.34;;;14.37
13304;BMP280;6720;51.958;4.540;2022-10-16T04:55:51;100842.81;;;14.34
13304;BMP280;6720;51.958;4.540;2022-10-16T04:58:16;100848.19;;;14.31
13304;BMP280;6720;51.958;4.540;2022-10-16T05:00:43;100862.06;;;14.36
13304;BMP280;6720;51.958;4.540;2022-10-16T05:03:08;100860.25;;;14.38
13304;BMP280;6720;51.958;4.540;2022-10-16T05:05:35;100860.25;;;14.38
13304;BMP280;6720;51.958;4.540;2022-10-16T05:08:00;100858.50;;;14.37
13304;BMP280;6720;51.958;4.540;2022-10-16T05:10:26;100862.66;;;14.44
13304;BMP280;6720;51.958;4.540;2022-10-16T05:12:51;100861.03;;;14.40
13304;BMP280;6720;51.958;4.540;2022-10-16T05:15:17;100862.72;;;14.43
13304;BMP280;6720;51.958;4.540;2022-10-16T05:17:43;100877.56;;;14.45
13304;BMP280;6720;51.958;4.540;2022-10-16T05:20:09;100881.94;;;14.46
13304;BMP280;6720;51.958;4.540;2022-10-16T05:22:35;100874.03;;;14.46
13304;BMP280;6720;51.958;4.540;2022-10-16T05:25:00;100878.25;;;14.52
13304;BMP280;6720;51.958;4.540;2022-10-16T05:27:26;100886.31;;;14.46
13304;BMP280;6720;51.958;4.540;2022-10-16T05:29:51;100893.34;;;14.45
13304;BMP280;6720;51.958;4.540;2022-10-16T05:32:17;100890.72;;;14.45
13304;BMP280;6720;51.958;4.540;2022-10-16T05:34:44;100896.06;;;14.44
13304;BMP280;6720;51.958;4.540;2022-10-16T05:37:10;100900.38;;;14.46
13304;BMP280;6720;51.958;4.540;2022-10-16T05:39:37;100914.28;;;14.50
13304;BMP280;6720;51.958;4.540;2022-10-16T05:42:03;100908.09;;;14.51
13304;BMP280;6720;51.958;4.540;2022-10-16T05:44:28;100908.97;;;14.51
13304;BMP280;6720;51.958;4.540;2022-10-16T05:46:53;100898.53;;;14.48
13304;BMP280;6720;51.958;4.540;2022-10-16T05:49:19;100912.81;;;14.41
13304;BMP280;6720;51.958;4.540;2022-10-16T05:51:44;100908.38;;;14.43
13304;BMP280;6720;51.958;4.540;2022-10-16T05:54:09;100902.19;;;14.44
13304;BMP280;6720;51.958;4.540;2022-10-16T05:56:35;100910.78;;;14.49
13304;BMP280;6720;51.958;4.540;2022-10-16T05:59:00;100903.91;;;14.45
13304;BMP280;6720;51.958;4.540;2022-10-16T06:01:26;100922.34;;;14.45
13304;BMP280;6720;51.958;4.540;2022-10-16T06:03:52;100918.91;;;14.43
13304;BMP280;6720;51.958;4.540;2022-10-16T06:06:22;100919.66;;;14.47
13304;BMP280;6720;51.958;4.540;2022-10-16T06:08:48;100914.25;;;14.51
13304;BMP280;6720;51.958;4.540;2022-10-16T06:11:19;100905.81;;;14.40
13304;BMP280;6720;51.958;4.540;2022-10-16T06:13:44;100933.53;;;14.53
13304;BMP280;6720;51.958;4.540;2022-10-16T06:16:12;100929.84;;;14.59
13304;BMP280;6720;51.958;4.540;2022-10-16T06:18:37;100929.97;;;14.54
13304;BMP280;6720;51.958;4.540;2022-10-16T06:21:10;100935.31;;;14.51
13304;BMP280;6720;51.958;4.540;2022-10-16T06:23:36;100935.25;;;14.54
13304;BMP280;6720;51.958;4.540;2022-10-16T06:26:10;100909.41;;;14.38
13304;BMP280;6720;51.958;4.540;2022-10-16T06:28:36;100949.22;;;14.56
13304;BMP280;6720;51.958;4.540;2022-10-16T06:31:04;100940.47;;;14.56
13304;BMP280;6720;51.958;4.540;2022-10-16T06:33:29;100955.31;;;14.58
13304;BMP280;6720;51.958;4.540;2022-10-16T06:36:07;100891.66;;;14.15
13304;BMP280;6720;51.958;4.540;2022-10-16T06:38:33;100943.06;;;14.57
13304;BMP280;6720;51.958;4.540;2022-10-16T06:40:58;100948.31;;;14.57
13304;BMP280;6720;51.958;4.540;2022-10-16T06:43:24;100962.34;;;14.58
13304;BMP280;6720;51.958;4.540;2022-10-16T06:45:54;100959.88;;;14.53
13304;BMP280;6720;51.958;4.540;2022-10-16T06:48:20;100960.91;;;14.48
13304;BMP280;6720;51.958;4.540;2022-10-16T06:50:56;100966.19;;;14.48
13304;BMP280;6720;51.958;4.540;2022-10-16T06:53:22;100977.47;;;14.51
13304;BMP280;6720;51.958;4.540;2022-10-16T06:55:48;100977.38;;;14.54
13304;BMP280;6720;51.958;4.540;2022-10-16T06:58:13;100972.22;;;14.51
13304;BMP280;6720;51.958;4.540;2022-10-16T07:00:39;100981.22;;;14.44
13304;BMP280;6720;51.958;4.540;2022-10-16T07:03:04;100991.75;;;14.44
13304;BMP280;6720;51.958;4.540;2022-10-16T07:05:29;100989.34;;;14.37
13304;BMP280;6720;51.958;4.540;2022-10-16T07:07:58;100997.28;;;14.35
13304;BMP280;6720;51.958;4.540;2022-10-16T07:10:23;101012.91;;;14.41
13304;BMP280;6720;51.958;4.540;2022-10-16T07:12:49;101013.84;;;14.39
13304;BMP280;6720;51.958;4.540;2022-10-16T07:15:15;101010.38;;;14.38
13304;BMP280;6720;51.958;4.540;2022-10-16T07:17:40;100992.88;;;14.36
13304;BMP280;6720;51.958;4.540;2022-10-16T07:20:07;101032.88;;;14.48
13304;BMP280;6720;51.958;4.540;2022-10-16T07:22:34;101043.34;;;14.51
13304;BMP280;6720;51.958;4.540;2022-10-16T07:25:00;101043.34;;;14.51
13304;BMP280;6720;51.958;4.540;2022-10-16T07:27:25;101049.53;;;14.50
13304;BMP280;6720;51.958;4.540;2022-10-16T07:29:51;101048.56;;;14.53
13304;BMP280;6720;51.958;4.540;2022-10-16T07:32:16;101058.16;;;14.55
13304;BMP280;6720;51.958;4.540;2022-10-16T07:34:42;101055.50;;;14.55
13304;BMP280;6720;51.958;4.540;2022-10-16T07:37:07;101070.31;;;14.59
13304;BMP280;6720;51.958;4.540;2022-10-16T07:39:33;101056.97;;;14.65
13304;BMP280;6720;51.958;4.540;2022-10-16T07:41:58;101082.31;;;14.69
13304;BMP280;6720;51.958;4.540;2022-10-16T07:44:24;101085.75;;;14.71
13304;BMP280;6720;51.958;4.540;2022-10-16T07:46:49;101076.09;;;14.72
13304;BMP280;6720;51.958;4.540;2022-10-16T07:49:16;101080.38;;;14.76
13304;BMP280;6720;51.958;4.540;2022-10-16T07:51:42;101087.31;;;14.78
13304;BMP280;6720;51.958;4.540;2022-10-16T07:54:09;101080.31;;;14.77
13304;BMP280;6720;51.958;4.540;2022-10-16T07:56:34;101089.03;;;14.79
13304;BMP280;6720;51.958;4.540;2022-10-16T07:59:00;101108.91;;;14.91
13304;BMP280;6720;51.958;4.540;2022-10-16T08:01:25;101098.38;;;14.90
13304;BMP280;6720;51.958;4.540;2022-10-16T08:03:51;101088.47;;;14.98
13304;BMP280;6720;51.958;4.540;2022-10-16T08:06:18;101108.50;;;15.03
13304;BMP280;6720;51.958;4.540;2022-10-16T08:08:44;101100.78;;;14.99
13304;BMP280;6720;51.958;4.540;2022-10-16T08:11:09;101124.16;;;15.09
13304;BMP280;6720;51.958;4.540;2022-10-16T08:13:35;101124.81;;;15.16
13304;BMP280;6720;51.958;4.540;2022-10-16T08:16:01;101109.88;;;15.16
13304;BMP280;6720;51.958;4.540;2022-10-16T08:18:27;101131.34;;;15.32
13304;BMP280;6720;51.958;4.540;2022-10-16T08:20:59;101128.59;;;15.36
13304;BMP280;6720;51.958;4.540;2022-10-16T08:23:26;101135.41;;;15.43
13304;BMP280;6720;51.958;4.540;2022-10-16T08:25:52;101141.25;;;15.53
13304;BMP280;6720;51.958;4.540;2022-10-16T08:28:18;101146.00;;;15.42
13304;BMP280;6720;51.958;4.540;2022-10-16T08:30:44;101158.72;;;15.57
13304;BMP280;6720;51.958;4.540;2022-10-16T08:33:09;101159.47;;;15.60
13304;BMP280;6720;51.958;4.540;2022-10-16T08:35:34;101160.34;;;15.61
13304;BMP280;6720;51.958;4.540;2022-10-16T08:38:03;101170.41;;;15.76
13304;BMP280;6720;51.958;4.540;2022-10-16T08:40:30;101146.44;;;15.56
13304;BMP280;6720;51.958;4.540;2022-10-16T08:48:52;101166.75;;;15.80
13304;BMP280;6720;51.958;4.540;2022-10-16T08:51:26;101177.00;;;15.89
13304;BMP280;6720;51.958;4.540;2022-10-16T08:53:57;101185.88;;;16.12
13304;BMP280;6720;51.958;4.540;2022-10-16T08:56:24;101192.69;;;16.19
13304;BMP280;6720;51.958;4.540;2022-10-16T08:58:51;101190.53;;;16.30
13304;BMP280;6720;51.958;4.540;2022-10-16T09:01:19;101154.06;;;16.41
13304;BMP280;6720;51.958;4.540;2022-10-16T09:06:46;101197.41;;;17.08
13304;BMP280;6720;51.958;4.540;2022-10-16T09:17:27;101209.44;;;18.04
13304;BMP280;6720;51.958;4.540;2022-10-16T09:25:31;101219.13;;;18.25
13304;BMP280;6720;51.958;4.540;2022-10-16T09:27:57;101221.47;;;18.73
13304;BMP280;6720;51.958;4.540;2022-10-16T09:30:26;101199.78;;;18.83
13304;BMP280;6720;51.958;4.540;2022-10-16T09:32:53;101225.91;;;18.92
13304;BMP280;6720;51.958;4.540;2022-10-16T09:35:31;101220.06;;;18.64
13304;BMP280;6720;51.958;4.540;2022-10-16T09:37:56;101218.25;;;19.23
13304;BMP280;6720;51.958;4.540;2022-10-16T09:40:28;101188.69;;;19.12
13304;BMP280;6720;51.958;4.540;2022-10-16T09:43:02;101231.22;;;19.49
13304;BMP280;6720;51.958;4.540;2022-10-16T09:45:28;101242.41;;;19.37
13304;BMP280;6720;51.958;4.540;2022-10-16T09:47:54;101230.09;;;19.36
13304;BMP280;6720;51.958;4.540;2022-10-16T09:50:26;101229.81;;;19.22
13304;BMP280;6720;51.958;4.540;2022-10-16T09:53:14;101237.00;;;18.82
13304;BMP280;6720;51.958;4.540;2022-10-16T09:55:49;101236.56;;;18.91
13304;BMP280;6720;51.958;4.540;2022-10-16T09:58:15;101235.94;;;18.86
13304;BMP280;6720;51.958;4.540;2022-10-16T10:00:42;101239.09;;;18.74
13304;BMP280;6720;51.958;4.540;2022-10-16T10:03:30;101239.22;;;18.31
13304;BMP280;6720;51.958;4.540;2022-10-16T10:05:58;101255.97;;;18.53
13304;BMP280;6720;51.958;4.540;2022-10-16T10:08:25;101233.00;;;18.92
13304;BMP280;6720;51.958;4.540;2022-10-16T10:10:51;101254.13;;;18.75
13304;BMP280;6720;51.958;4.540;2022-10-16T10:13:40;101255.91;;;18.74
13304;BMP280;6720;51.958;4.540;2022-10-16T10:16:06;101260.16;;;18.38
13304;BMP280;6720;51.958;4.540;2022-10-16T10:18:31;101264.50;;;18.99
13304;BMP280;6720;51.958;4.540;2022-10-16T10:21:01;101242.06;;;18.48
13304;BMP280;6720;51.958;4.540;2022-10-16T10:23:29;101237.75;;;18.23
13304;BMP280;6720;51.958;4.540;2022-10-16T10:28:55;101283.25;;;18.55
13304;BMP280;6720;51.958;4.540;2022-10-16T10:31:38;101250.56;;;18.12
13304;BMP280;6720;51.958;4.540;2022-10-16T10:36:39;101278.19;;;18.07
13304;BMP280;6720;51.958;4.540;2022-10-16T10:39:15;101282.72;;;18.47
13304;BMP280;6720;51.958;4.540;2022-10-16T10:50:14;101290.78;;;19.44
13304;BMP280;6720;51.958;4.540;2022-10-16T11:02:03;101306.06;;;20.65
13304;BMP280;6720;51.958;4.540;2022-10-16T11:07:36;101307.34;;;20.92
13304;BMP280;6720;51.958;4.540;2022-10-16T11:10:07;101339.75;;;20.83
13304;BMP280;6720;51.958;4.540;2022-10-16T11:12:40;101323.44;;;20.89
13304;BMP280;6720;51.958;4.540;2022-10-16T11:15:16;101329.09;;;21.17
13304;BMP280;6720;51.958;4.540;2022-10-16T11:23:49;101344.06;;;21.35
13304;BMP280;6720;51.958;4.540;2022-10-16T11:26:22;101345.38;;;21.11
13304;BMP280;6720;51.958;4.540;2022-10-16T11:28:50;101338.56;;;21.06
13304;BMP280;6720;51.958;4.540;2022-10-16T11:34:02;101314.81;;;21.18
13304;BMP280;6720;51.958;4.540;2022-10-16T11:36:44;101347.97;;;21.45
13304;BMP280;6720;51.958;4.540;2022-10-16T11:39:27;101330.59;;;21.38
13304;BMP280;6720;51.958;4.540;2022-10-16T11:41:59;101340.25;;;21.74
13304;BMP280;6720;51.958;4.540;2022-10-16T11:44:41;101325.91;;;21.43
13304;BMP280;6720;51.958;4.540;2022-10-16T11:49:59;101346.25;;;22.39
13304;BMP280;6720;51.958;4.540;2022-10-16T11:55:36;101364.53;;;22.16
13304;BMP280;6720;51.958;4.540;2022-10-16T12:00:51;101373.47;;;21.99
13304;BMP280;6720;51.958;4.540;2022-10-16T12:08:43;101379.59;;;21.69
13304;BMP280;6720;51.958;4.540;2022-10-16T12:13:49;101374.41;;;21.66
13304;BMP280;6720;51.958;4.540;2022-10-16T12:18:44;101382.41;;;21.83
13304;BMP280;6720;51.958;4.540;2022-10-16T12:21:12;101370.88;;;22.29
13304;BMP280;6720;51.958;4.540;2022-10-16T12:23:54;101387.09;;;22.57
13304;BMP280;6720;51.958;4.540;2022-10-16T12:26:32;101386.56;;;22.04
13304;BMP280;6720;51.958;4.540;2022-10-16T12:31:47;101377.06;;;22.45
13304;BMP280;6720;51.958;4.540;2022-10-16T12:34:21;101382.06;;;22.35
13304;BMP280;6720;51.958;4.540;2022-10-16T12:36:47;101386.91;;;22.29
13304;BMP280;6720;51.958;4.540;2022-10-16T12:39:24;101363.13;;;21.93
13304;BMP280;6720;51.958;4.540;2022-10-16T12:44:54;101391.66;;;21.76
13304;BMP280;6720;51.958;4.540;2022-10-16T12:47:49;101398.28;;;21.52
13304;BMP280;6720;51.958;4.540;2022-10-16T12:50:34;101392.00;;;21.52
13304;BMP280;6720;51.958;4.540;2022-10-16T12:53:01;101397.97;;;21.90
13304;BMP280;6720;51.958;4.540;2022-10-16T12:55:34;101388.53;;;21.68
13304;BMP280;6720;51.958;4.540;2022-10-16T13:00:45;101404.91;;;21.60
13304;BMP280;6720;51.958;4.540;2022-10-16T13:06:30;101405.06;;;21.24
13304;BMP280;6720;51.958;4.540;2022-10-16T13:15:24;101414.84;;;21.07
13304;BMP280;6720;51.958;4.540;2022-10-16T13:17:53;101410.78;;;21.17
13304;BMP280;6720;51.958;4.540;2022-10-16T13:21:14;101401.75;;;21.19
13304;BMP280;6720;51.958;4.540;2022-10-16T13:28:29;101377.41;;;20.40
13304;BMP280;6720;51.958;4.540;2022-10-16T13:30:58;101374.09;;;20.17
13304;BMP280;6720;51.958;4.540;2022-10-16T13:33:36;101401.72;;;20.14
13304;BMP280;6720;51.958;4.540;2022-10-16T13:36:03;101398.06;;;20.52
13304;BMP280;6720;51.958;4.540;2022-10-16T13:38:34;101381.00;;;20.39
13304;BMP280;6720;51.958;4.540;2022-10-16T13:41:05;101415.91;;;20.50
13304;BMP280;6720;51.958;4.540;2022-10-16T13:43:42;101409.38;;;20.57
13304;BMP280;6720;51.958;4.540;2022-10-16T13:46:22;101386.31;;;20.02
13304;BMP280;6720;51.958;4.540;2022-10-16T13:48:58;101423.53;;;20.02
13304;BMP280;6720;51.958;4.540;2022-10-16T13:51:24;101406.13;;;20.15
13304;BMP280;6720;51.958;4.540;2022-10-16T13:53:50;101402.78;;;20.10
13304;BMP280;6720;51.958;4.540;2022-10-16T13:56:19;101406.63;;;20.23
13304;BMP280;6720;51.958;4.540;2022-10-16T13:58:45;101407.06;;;19.94
13304;BMP280;6720;51.958;4.540;2022-10-16T14:01:39;101400.81;;;19.95
13304;BMP280;6720;51.958;4.540;2022-10-16T14:04:10;101362.59;;;19.98
13304;BMP280;6720;51.958;4.540;2022-10-16T14:06:40;101373.66;;;20.07
13304;BMP280;6720;51.958;4.540;2022-10-16T14:09:09;101401.44;;;20.20
13304;BMP280;6720;51.958;4.540;2022-10-16T14:11:46;101368.22;;;20.10
13304;BMP280;6720;51.958;4.540;2022-10-16T14:14:14;101389.28;;;20.15
13304;BMP280;6720;51.958;4.540;2022-10-16T14:16:42;101387.75;;;20.09
13304;BMP280;6720;51.958;4.540;2022-10-16T14:19:28;101404.28;;;19.97
13304;BMP280;6720;51.958;4.540;2022-10-16T14:21:56;101408.47;;;19.64
13304;BMP280;6720;51.958;4.540;2022-10-16T14:24:34;101405.56;;;19.70
13304;BMP280;6720;51.958;4.540;2022-10-16T14:27:01;101401.38;;;19.83
13304;BMP280;6720;51.958;4.540;2022-10-16T14:29:29;101374.66;;;19.68
13304;BMP280;6720;51.958;4.540;2022-10-16T14:32:01;101407.59;;;19.84
13304;BMP280;6720;51.958;4.540;2022-10-16T14:34:31;101406.28;;;19.92
13304;BMP280;6720;51.958;4.540;2022-10-16T14:37:00;101378.56;;;19.79
13304;BMP280;6720;51.958;4.540;2022-10-16T14:39:27;101400.88;;;19.94
13304;BMP280;6720;51.958;4.540;2022-10-16T14:41:55;101366.22;;;19.78
13304;BMP280;6720;51.958;4.540;2022-10-16T14:44:27;101396.44;;;19.76
13304;BMP280;6720;51.958;4.540;2022-10-16T14:46:53;101386.28;;;19.65
13304;BMP280;6720;51.958;4.540;2022-10-16T14:49:20;101404.25;;;19.60
13304;BMP280;6720;51.958;4.540;2022-10-16T14:51:46;101408.34;;;19.67
13304;BMP280;6720;51.958;4.540;2022-10-16T14:54:13;101398.34;;;19.72
13304;BMP280;6720;51.958;4.540;2022-10-16T14:56:53;101401.81;;;19.74
13304;BMP280;6720;51.958;4.540;2022-10-16T14:59:37;101402.97;;;19.69
13304;BMP280;6720;51.958;4.540;2022-10-16T15:02:31;101380.03;;;19.28
13304;BMP280;6720;51.958;4.540;2022-10-16T15:04:57;101392.84;;;19.38
13304;BMP280;6720;51.958;4.540;2022-10-16T15:07:23;101385.34;;;19.28
13304;BMP280;6720;51.958;4.540;2022-10-16T15:09:49;101396.69;;;19.31
13304;BMP280;6720;51.958;4.540;2022-10-16T15:12:15;101391.50;;;19.28
13304;BMP280;6720;51.958;4.540;2022-10-16T15:14:40;101396.09;;;19.25
13304;BMP280;6720;51.958;4.540;2022-10-16T15:17:09;101388.16;;;19.23
13304;BMP280;6720;51.958;4.540;2022-10-16T15:19:35;101377.97;;;19.14
13304;BMP280;6720;51.958;4.540;2022-10-16T15:22:00;101383.72;;;19.04
13304;BMP280;6720;51.958;4.540;2022-10-16T15:24:25;101386.47;;;19.02
13304;BMP280;6720;51.958;4.540;2022-10-16T15:26:51;101392.94;;;18.95
13304;BMP280;6720;51.958;4.540;2022-10-16T15:29:17;101380.88;;;18.88
13304;BMP280;6720;51.958;4.540;2022-10-16T15:31:42;101382.72;;;18.86
13304;BMP280;6720;51.958;4.540;2022-10-16T15:34:10;101371.50;;;18.80
13304;BMP280;6720;51.958;4.540;2022-10-16T15:36:38;101379.78;;;18.72
13304;BMP280;6720;51.958;4.540;2022-10-16T15:39:05;101381.75;;;18.67
13304;BMP280;6720;51.958;4.540;2022-10-16T15:41:30;101391.53;;;18.67
13304;BMP280;6720;51.958;4.540;2022-10-16T15:43:56;101389.91;;;18.63
13304;BMP280;6720;51.958;4.540;2022-10-16T15:46:22;101393.88;;;18.53
13304;BMP280;6720;51.958;4.540;2022-10-16T15:48:49;101390.41;;;18.51
13304;BMP280;6720;51.958;4.540;2022-10-16T15:51:15;101389.63;;;18.49
13304;BMP280;6720;51.958;4.540;2022-10-16T15:53:41;101376.59;;;18.43
13304;BMP280;6720;51.958;4.540;2022-10-16T15:56:09;101360.06;;;18.36
13304;BMP280;6720;51.958;4.540;2022-10-16T15:58:35;101367.44;;;18.28
13304;BMP280;6720;51.958;4.540;2022-10-16T16:01:01;101365.47;;;18.33
13304;BMP280;6720;51.958;4.540;2022-10-16T16:03:28;101363.91;;;18.27
13304;BMP280;6720;51.958;4.540;2022-10-16T16:05:54;101362.25;;;18.25
13304;BMP280;6720;51.958;4.540;2022-10-16T16:08:20;101357.22;;;18.19
13304;BMP280;6720;51.958;4.540;2022-10-16T16:10:57;101365.34;;;18.14
13304;BMP280;6720;51.958;4.540;2022-10-16T16:13:22;101354.13;;;18.08
13304;BMP280;6720;51.958;4.540;2022-10-16T16:15:48;101357.19;;;17.97
13304;BMP280;6720;51.958;4.540;2022-10-16T16:18:13;101365.50;;;17.88
13304;BMP280;6720;51.958;4.540;2022-10-16T16:20:38;101378.75;;;17.88
13304;BMP280;6720;51.958;4.540;2022-10-16T16:23:04;101380.50;;;17.88
13304;BMP280;6720;51.958;4.540;2022-10-16T16:25:29;101391.41;;;17.80
13304;BMP280;6720;51.958;4.540;2022-10-16T16:27:54;101383.63;;;17.76